createdAt,value
2019-03-04T00:02:13.707Z,10.79
2019-03-04T00:04:41.349Z,10.60
2019-03-04T00:07:08.993Z,10.73
2019-03-04T00:09:36.630Z,11.09
2019-03-04T00:12:04.268Z,11.14
2019-03-04T00:14:31.937Z,11.03
2019-03-04T00:19:25.510Z,11.08
2019-03-04T00:21:53.156Z,11.13
2019-03-04T00:24:20.818Z,11.10
2019-03-04T00:26:48.462Z,11.14
2019-03-04T00:31:42.040Z,11.27
2019-03-04T00:36:35.611Z,11.07
2019-03-04T00:39:04.424Z,10.94
2019-03-04T00:41:32.066Z,10.91
2019-03-04T00:43:59.787Z,10.78
2019-03-04T00:46:27.437Z,10.86
2019-03-04T00:51:21.865Z,10.92
2019-03-04T00:53:49.519Z,11.05
2019-03-04T00:56:17.161Z,11.03
2019-03-04T00:58:44.802Z,10.92
2019-03-04T01:01:12.445Z,10.83
2019-03-04T01:03:40.096Z,10.72
2019-03-04T01:06:07.724Z,10.72
2019-03-04T01:08:35.374Z,10.73
2019-03-04T01:11:03.052Z,10.99
2019-03-04T01:13:30.690Z,10.98
2019-03-04T01:15:58.329Z,10.75
2019-03-04T01:18:26.042Z,10.66
2019-03-04T01:20:53.686Z,10.54
2019-03-04T01:23:21.329Z,10.48
2019-03-04T01:25:48.969Z,10.65
2019-03-04T01:28:16.605Z,10.57
2019-03-04T01:30:44.262Z,10.70
2019-03-04T01:35:37.854Z,10.58
2019-03-04T01:38:05.495Z,10.62
2019-03-04T01:40:33.140Z,10.68
2019-03-04T01:43:00.776Z,10.60
2019-03-04T01:45:28.415Z,10.51
2019-03-04T01:47:56.050Z,10.41
2019-03-04T01:50:23.700Z,10.38
2019-03-04T01:52:51.345Z,10.78
2019-03-04T01:55:18.987Z,10.69
2019-03-04T01:57:46.619Z,10.72
2019-03-04T02:00:14.268Z,10.53
2019-03-04T02:02:41.909Z,10.85
2019-03-04T02:05:09.539Z,10.92
2019-03-04T02:07:37.183Z,11.09
2019-03-04T02:10:04.832Z,11.11
2019-03-04T02:12:32.475Z,10.94
2019-03-04T02:15:00.325Z,11.08
2019-03-04T02:17:28.061Z,11.02
2019-03-04T02:19:55.998Z,11.09
2019-03-04T02:22:23.647Z,10.79
2019-03-04T02:24:51.283Z,10.76
2019-03-04T02:27:18.919Z,10.83
2019-03-04T02:29:46.565Z,11.00
2019-03-04T02:32:14.207Z,11.21
2019-03-04T02:34:41.876Z,11.23
2019-03-04T02:37:09.521Z,11.35
2019-03-04T02:39:37.158Z,11.29
2019-03-04T02:42:04.815Z,11.22
2019-03-04T02:44:32.458Z,11.22
2019-03-04T02:47:00.101Z,11.35
2019-03-04T02:49:27.755Z,11.22
2019-03-04T02:51:55.410Z,11.07
2019-03-04T02:54:23.083Z,10.88
2019-03-04T02:56:50.791Z,10.73
2019-03-04T02:59:18.435Z,10.62
2019-03-04T03:01:46.153Z,10.66
2019-03-04T03:04:13.870Z,10.42
2019-03-04T03:06:41.530Z,10.30
2019-03-04T03:09:09.174Z,10.35
2019-03-04T03:11:36.836Z,10.20
2019-03-04T03:14:04.474Z,10.19
2019-03-04T03:16:32.118Z,10.14
2019-03-04T03:18:59.758Z,10.16
2019-03-04T03:21:27.409Z,10.00
2019-03-04T03:23:55.044Z,9.90
2019-03-04T03:26:22.695Z,9.68
2019-03-04T03:28:50.336Z,9.61
2019-03-04T03:31:17.970Z,9.46
2019-03-04T03:33:45.596Z,9.60
2019-03-04T03:36:13.240Z,9.60
2019-03-04T03:38:40.952Z,9.66
2019-03-04T03:41:08.601Z,9.53
2019-03-04T03:43:36.251Z,9.55
2019-03-04T03:46:03.901Z,9.40
2019-03-04T03:48:31.536Z,9.35
2019-03-04T03:50:59.182Z,9.34
2019-03-04T03:53:26.819Z,9.44
2019-03-04T03:55:54.450Z,9.58
2019-03-04T03:58:25.020Z,9.42
2019-03-04T04:00:51.431Z,9.25
2019-03-04T04:03:19.079Z,9.24
2019-03-04T04:05:46.717Z,9.12
2019-03-04T04:08:14.359Z,8.92
2019-03-04T04:10:42.010Z,8.87
2019-03-04T04:13:09.635Z,8.70
2019-03-04T04:15:37.268Z,8.59
2019-03-04T04:18:04.918Z,8.65
2019-03-04T04:20:32.642Z,8.43
2019-03-04T04:23:00.356Z,8.29
2019-03-04T04:25:28.015Z,8.29
2019-03-04T04:27:55.731Z,8.26
2019-03-04T04:30:24.713Z,8.47
2019-03-04T04:32:52.347Z,8.42
2019-03-04T04:35:19.982Z,8.40
2019-03-04T04:37:47.619Z,8.36
2019-03-04T04:40:15.267Z,8.67
2019-03-04T04:42:42.906Z,8.56
2019-03-04T04:45:10.595Z,8.49
2019-03-04T04:47:38.231Z,8.48
2019-03-04T04:50:05.867Z,8.49
2019-03-04T04:52:33.498Z,8.59
2019-03-04T04:55:01.139Z,8.93
2019-03-04T04:57:28.774Z,9.02
2019-03-04T04:59:56.411Z,9.02
2019-03-04T05:02:24.049Z,9.08
2019-03-04T05:04:51.680Z,9.20
2019-03-04T05:07:19.315Z,9.32
2019-03-04T05:09:46.987Z,9.44
2019-03-04T05:12:14.670Z,9.65
2019-03-04T05:14:42.335Z,9.73
2019-03-04T05:17:09.980Z,9.72
2019-03-04T05:19:37.610Z,9.74
2019-03-04T05:22:05.249Z,9.73
2019-03-04T05:24:32.882Z,9.85
2019-03-04T05:27:00.539Z,9.85
2019-03-04T05:29:28.202Z,9.95
2019-03-04T05:31:55.838Z,10.07
2019-03-04T05:34:23.474Z,10.39
2019-03-04T05:36:51.197Z,10.37
2019-03-04T05:39:18.838Z,10.56
2019-03-04T05:41:46.485Z,10.65
2019-03-04T05:44:14.157Z,10.79
2019-03-04T05:46:41.800Z,11.11
2019-03-04T05:49:09.444Z,11.24
2019-03-04T05:51:37.091Z,11.28
2019-03-04T05:54:04.731Z,11.68
2019-03-04T05:56:32.370Z,11.53
2019-03-04T05:59:00.015Z,11.52
2019-03-04T06:01:27.940Z,11.71
2019-03-04T06:03:55.581Z,11.64
2019-03-04T06:06:28.583Z,11.85
2019-03-04T06:08:56.221Z,11.87
2019-03-04T06:11:23.864Z,12.00
2019-03-04T06:13:51.496Z,12.01
2019-03-04T06:16:19.145Z,12.07
2019-03-04T06:18:46.773Z,12.27
2019-03-04T06:21:14.411Z,12.17
2019-03-04T06:23:42.054Z,12.23
2019-03-04T06:26:09.698Z,12.00
2019-03-04T06:28:37.370Z,11.92
2019-03-04T06:31:05.046Z,11.93
2019-03-04T06:33:32.679Z,11.95
2019-03-04T06:36:00.333Z,12.00
2019-03-04T06:38:27.981Z,12.01
2019-03-04T06:40:55.630Z,11.88
2019-03-04T06:43:23.289Z,11.89
2019-03-04T06:45:50.926Z,11.94
2019-03-04T06:48:18.574Z,11.93
2019-03-04T06:50:46.216Z,12.00
2019-03-04T06:53:13.850Z,12.04
2019-03-04T06:55:41.499Z,12.06
2019-03-04T06:58:09.163Z,11.99
2019-03-04T07:00:36.807Z,12.14
2019-03-04T07:03:04.455Z,12.28
2019-03-04T07:05:32.115Z,12.29
2019-03-04T07:07:59.755Z,12.31
2019-03-04T07:10:27.405Z,12.29
2019-03-04T07:12:55.077Z,12.33
2019-03-04T07:15:22.740Z,12.28
2019-03-04T07:17:50.384Z,12.31
2019-03-04T07:20:18.035Z,12.51
2019-03-04T07:22:45.675Z,12.44
2019-03-04T07:25:13.327Z,12.37
2019-03-04T07:27:40.986Z,12.43
2019-03-04T07:30:08.645Z,12.48
2019-03-04T07:32:36.299Z,12.44
2019-03-04T07:35:03.954Z,12.36
2019-03-04T07:37:31.586Z,12.40
2019-03-04T07:39:59.236Z,12.38
2019-03-04T07:42:26.879Z,12.76
2019-03-04T07:44:54.629Z,12.72
2019-03-04T07:47:22.421Z,12.74
2019-03-04T07:49:50.083Z,12.62
2019-03-04T07:52:17.740Z,12.68
2019-03-04T07:54:45.396Z,12.68
2019-03-04T07:57:13.036Z,12.72
2019-03-04T07:59:40.683Z,12.73
2019-03-04T08:02:08.348Z,12.67
2019-03-04T08:04:36.028Z,12.75
2019-03-04T08:07:03.685Z,12.92
2019-03-04T08:09:31.436Z,13.00
2019-03-04T08:11:59.069Z,12.95
2019-03-04T08:14:26.725Z,12.69
2019-03-04T08:16:54.381Z,12.63
2019-03-04T08:19:22.049Z,12.57
2019-03-04T08:21:49.746Z,12.44
2019-03-04T08:24:17.406Z,12.29
2019-03-04T08:26:45.065Z,12.26
2019-03-04T08:29:12.703Z,12.27
2019-03-04T08:31:40.351Z,12.17
2019-03-04T08:34:09.371Z,12.07
2019-03-04T08:36:37.224Z,11.97
2019-03-04T08:39:05.211Z,12.12
2019-03-04T08:41:32.860Z,12.05
2019-03-04T08:44:00.503Z,11.94
2019-03-04T08:46:28.153Z,11.91
2019-03-04T08:48:55.823Z,11.95
2019-03-04T08:51:23.470Z,11.99
2019-03-04T08:53:51.172Z,12.08
2019-03-04T08:56:18.816Z,12.12
2019-03-04T08:58:46.467Z,12.13
2019-03-04T09:01:14.113Z,12.37
2019-03-04T09:03:41.777Z,12.43
2019-03-04T09:06:09.555Z,12.40
2019-03-04T09:08:37.196Z,12.33
2019-03-04T09:11:04.842Z,12.30
2019-03-04T09:13:32.492Z,12.30
2019-03-04T09:16:00.140Z,12.18
2019-03-04T09:18:27.803Z,12.24
2019-03-04T09:20:55.480Z,12.21
2019-03-04T09:23:23.161Z,12.23
2019-03-04T09:25:50.818Z,12.33
2019-03-04T09:28:18.479Z,12.45
2019-03-04T09:30:46.198Z,12.48
2019-03-04T09:33:13.845Z,12.59
2019-03-04T09:35:41.495Z,12.61
2019-03-04T09:38:09.130Z,12.68
2019-03-04T09:40:36.775Z,12.78
2019-03-04T09:43:04.407Z,12.79
2019-03-04T09:45:38.696Z,12.82
2019-03-04T09:48:01.482Z,12.72
2019-03-04T09:50:29.160Z,12.82
2019-03-04T09:52:56.801Z,13.06
2019-03-04T09:55:24.454Z,13.09
2019-03-04T09:57:52.095Z,13.30
2019-03-04T10:00:19.819Z,13.28
2019-03-04T10:02:47.463Z,13.30
2019-03-04T10:05:15.131Z,13.42
2019-03-04T10:07:42.908Z,13.86
2019-03-04T10:10:10.559Z,14.54
2019-03-04T10:12:38.210Z,15.12
2019-03-04T10:15:08.792Z,15.39
2019-03-04T10:17:35.282Z,15.56
2019-03-04T10:20:02.937Z,16.12
2019-03-04T10:22:30.598Z,16.18
2019-03-04T10:24:58.250Z,16.14
2019-03-04T10:27:25.891Z,16.44
2019-03-04T10:29:53.544Z,16.28
2019-03-04T10:32:21.259Z,16.22
2019-03-04T10:34:48.924Z,16.13
2019-03-04T10:37:16.583Z,16.06
2019-03-04T10:39:44.294Z,15.93
2019-03-04T10:42:11.969Z,15.72
2019-03-04T10:44:39.627Z,15.72
2019-03-04T10:47:07.279Z,15.65
2019-03-04T10:49:34.924Z,15.55
2019-03-04T10:52:02.566Z,15.43
2019-03-04T10:54:30.244Z,15.42
2019-03-04T10:56:57.896Z,15.33
2019-03-04T11:01:51.497Z,15.28
2019-03-04T11:04:19.141Z,15.34
2019-03-04T11:06:46.790Z,15.68
2019-03-04T11:09:14.448Z,15.71
2019-03-04T11:14:08.019Z,15.49
2019-03-04T11:16:35.692Z,15.47
2019-03-04T11:21:29.263Z,15.51
2019-03-04T11:23:56.910Z,15.63
2019-03-04T11:26:24.561Z,15.59
2019-03-04T11:28:52.205Z,15.79
2019-03-04T11:31:19.931Z,15.89
2019-03-04T11:33:47.576Z,15.82
2019-03-04T11:36:15.252Z,16.28
2019-03-04T11:38:42.962Z,16.58
2019-03-04T11:41:10.616Z,16.63
2019-03-04T11:43:38.272Z,16.74
2019-03-04T11:46:06.046Z,17.07
2019-03-04T11:48:33.693Z,17.33
2019-03-04T11:51:01.407Z,17.42
2019-03-04T11:53:29.261Z,17.27
2019-03-04T11:55:56.917Z,17.44
2019-03-04T11:58:24.578Z,17.46
2019-03-04T12:00:59.387Z,17.67
2019-03-04T12:03:27.207Z,17.60
2019-03-04T12:05:54.858Z,17.28
2019-03-04T12:08:22.503Z,17.06
2019-03-04T12:10:50.277Z,17.21
2019-03-04T12:13:18.165Z,17.44
2019-03-04T12:15:45.810Z,17.62
2019-03-04T12:18:13.446Z,17.28
2019-03-04T12:20:41.100Z,16.94
2019-03-04T12:23:08.754Z,16.97
2019-03-04T12:25:36.444Z,17.40
2019-03-04T12:28:04.107Z,17.55
2019-03-04T12:30:31.768Z,17.37
2019-03-04T12:32:59.516Z,17.62
2019-03-04T12:35:27.174Z,17.37
2019-03-04T12:37:54.837Z,17.07
2019-03-04T12:42:49.486Z,16.27
2019-03-04T12:45:17.168Z,16.01
2019-03-04T12:47:44.930Z,15.91
2019-03-04T12:52:38.498Z,15.89
2019-03-04T12:55:06.146Z,15.76
2019-03-04T12:57:33.870Z,15.54
2019-03-04T13:02:27.527Z,15.51
2019-03-04T13:04:55.166Z,15.60
2019-03-04T13:07:22.892Z,15.55
2019-03-04T13:09:51.116Z,15.48
2019-03-04T13:12:18.775Z,15.65
2019-03-04T13:14:46.407Z,15.62
2019-03-04T13:17:14.051Z,15.62
2019-03-04T13:19:41.698Z,15.60
2019-03-04T13:22:09.440Z,15.44
2019-03-04T13:24:37.104Z,15.30
2019-03-04T13:27:04.745Z,15.23
2019-03-04T13:29:32.411Z,15.16
2019-03-04T13:32:00.075Z,15.16
2019-03-04T13:34:27.866Z,15.08
2019-03-04T13:36:55.531Z,15.00
2019-03-04T13:39:23.166Z,14.96
2019-03-04T13:41:50.828Z,14.84
2019-03-04T13:44:18.491Z,14.85
2019-03-04T13:46:46.274Z,14.73
2019-03-04T13:49:13.939Z,14.70
2019-03-04T13:51:41.651Z,14.68
2019-03-04T13:54:09.298Z,14.56
2019-03-04T13:56:36.945Z,14.01
2019-03-04T13:59:04.592Z,13.80
2019-03-04T14:01:32.262Z,13.78
2019-03-04T14:04:00.186Z,13.58
2019-03-04T14:06:27.861Z,13.55
2019-03-04T14:08:55.580Z,13.69
2019-03-04T14:11:23.211Z,13.74
2019-03-04T14:13:51.031Z,13.79
2019-03-04T14:16:18.678Z,13.68
2019-03-04T14:18:46.334Z,13.72
2019-03-04T14:21:13.984Z,13.68
2019-03-04T14:23:41.657Z,13.63
2019-03-04T14:26:09.316Z,13.57
2019-03-04T14:28:36.962Z,13.62
2019-03-04T14:31:04.599Z,13.62
2019-03-04T14:33:32.243Z,13.62
2019-03-04T14:35:59.902Z,13.64
2019-03-04T14:38:27.559Z,13.61
2019-03-04T14:40:55.238Z,13.69
2019-03-04T14:43:22.890Z,13.79
2019-03-04T14:45:50.552Z,13.84
2019-03-04T14:48:18.214Z,13.88
2019-03-04T14:50:45.888Z,13.84
2019-03-04T14:53:13.540Z,13.84
2019-03-04T14:55:41.291Z,13.84
2019-03-04T14:58:08.955Z,13.85
2019-03-04T15:00:38.093Z,13.84
2019-03-04T15:03:05.746Z,13.88
2019-03-04T15:05:33.493Z,13.84
2019-03-04T15:08:01.157Z,13.84
2019-03-04T15:10:28.860Z,13.82
2019-03-04T15:12:56.500Z,13.80
2019-03-04T15:15:24.154Z,13.71
2019-03-04T15:17:51.802Z,13.65
2019-03-04T15:20:19.451Z,13.72
2019-03-04T15:22:47.100Z,13.65
2019-03-04T15:25:14.754Z,13.61
2019-03-04T15:27:42.433Z,13.61
2019-03-04T15:30:10.086Z,13.54
2019-03-04T15:32:37.739Z,13.49
2019-03-04T15:35:05.412Z,13.40
2019-03-04T15:37:33.718Z,13.37
2019-03-04T15:40:01.470Z,13.44
2019-03-04T15:42:29.132Z,13.33
2019-03-04T15:44:56.811Z,13.24
2019-03-04T15:47:24.454Z,13.23
2019-03-04T15:49:52.515Z,13.24
2019-03-04T15:52:20.220Z,13.18
2019-03-04T15:54:47.872Z,13.15
2019-03-04T15:57:15.554Z,13.04
2019-03-04T15:59:43.290Z,13.08
2019-03-04T16:02:10.971Z,13.17
2019-03-04T16:04:38.731Z,13.11
2019-03-04T16:07:06.800Z,13.14
2019-03-04T16:09:34.543Z,13.14
2019-03-04T16:12:02.240Z,13.10
2019-03-04T16:14:29.919Z,12.99
2019-03-04T16:16:57.795Z,12.96
2019-03-04T16:19:25.449Z,13.02
2019-03-04T16:21:53.114Z,12.98
2019-03-04T16:24:20.778Z,13.03
2019-03-04T16:26:48.623Z,12.89
2019-03-04T16:29:16.334Z,12.83
2019-03-04T16:31:43.996Z,12.91
2019-03-04T16:34:11.651Z,12.81
2019-03-04T16:36:39.296Z,12.78
2019-03-04T16:39:06.938Z,12.80
2019-03-04T16:41:34.575Z,12.88
2019-03-04T16:44:02.350Z,12.78
2019-03-04T16:46:30.012Z,12.80
2019-03-04T16:48:57.657Z,12.82
2019-03-04T16:51:25.299Z,12.89
2019-03-04T16:53:52.940Z,12.73
2019-03-04T16:56:20.585Z,12.89
2019-03-04T16:58:48.226Z,12.80
2019-03-04T17:01:15.866Z,12.25
2019-03-04T17:03:43.538Z,10.81
2019-03-04T17:06:11.205Z,10.45
2019-03-04T17:08:38.923Z,10.37
2019-03-04T17:11:06.567Z,10.65
2019-03-04T17:13:34.214Z,10.55
2019-03-04T17:16:01.847Z,10.42
2019-03-04T17:18:29.490Z,10.41
2019-03-04T17:20:57.126Z,10.30
2019-03-04T17:23:24.787Z,10.29
2019-03-04T17:25:52.519Z,10.43
2019-03-04T17:28:20.176Z,10.76
2019-03-04T17:30:47.926Z,10.68
2019-03-04T17:33:15.563Z,10.50
2019-03-04T17:35:43.216Z,10.51
2019-03-04T17:38:10.850Z,10.46
2019-03-04T17:40:38.503Z,10.42
2019-03-04T17:43:06.166Z,10.40
2019-03-04T17:45:34.736Z,10.47
2019-03-04T17:48:02.379Z,10.62
2019-03-04T17:50:30.031Z,10.62
2019-03-04T17:52:57.663Z,10.44
2019-03-04T17:55:25.312Z,10.62
2019-03-04T17:57:52.955Z,10.62
2019-03-04T18:00:20.605Z,10.42
2019-03-04T18:02:48.241Z,10.38
2019-03-04T18:05:15.883Z,10.54
2019-03-04T18:07:43.523Z,10.42
2019-03-04T18:10:11.178Z,10.58
2019-03-04T18:12:38.829Z,10.53
2019-03-04T18:15:06.493Z,10.49
2019-03-04T18:17:34.144Z,10.53
2019-03-04T18:20:01.834Z,9.82
2019-03-04T18:22:29.470Z,7.74
2019-03-04T18:24:57.110Z,7.30
2019-03-04T18:27:24.764Z,6.97
2019-03-04T18:29:52.503Z,6.83
2019-03-04T18:32:20.140Z,6.90
2019-03-04T18:34:47.795Z,6.82
2019-03-04T18:37:15.429Z,6.81
2019-03-04T18:39:43.183Z,6.81
2019-03-04T18:42:10.819Z,6.75
2019-03-04T18:44:38.463Z,6.57
2019-03-04T18:47:06.090Z,6.63
2019-03-04T18:49:33.733Z,6.76
2019-03-04T18:52:01.374Z,6.51
2019-03-04T18:54:29.022Z,6.82
2019-03-04T18:56:56.742Z,7.00
2019-03-04T18:59:24.390Z,6.56
2019-03-04T19:01:52.028Z,6.48
2019-03-04T19:04:19.680Z,6.50
2019-03-04T19:06:47.342Z,6.52
2019-03-04T19:09:14.995Z,6.61
2019-03-04T19:11:42.730Z,7.04
2019-03-04T19:14:10.368Z,6.54
2019-03-04T19:16:38.019Z,6.63
2019-03-04T19:19:05.639Z,6.80
2019-03-04T19:21:33.287Z,6.58
2019-03-04T19:24:00.933Z,6.61
2019-03-04T19:26:28.571Z,6.53
2019-03-04T19:28:56.203Z,6.56
2019-03-04T19:31:23.847Z,6.54
2019-03-04T19:33:51.571Z,6.58
2019-03-04T19:36:19.238Z,6.58
2019-03-04T19:38:46.934Z,6.51
2019-03-04T19:41:14.581Z,6.61
2019-03-04T19:43:42.210Z,6.75
2019-03-04T19:46:09.861Z,6.61
2019-03-04T19:48:37.496Z,6.61
2019-03-04T19:51:05.144Z,6.66
2019-03-04T19:53:32.851Z,6.51
2019-03-04T19:56:00.607Z,6.58
2019-03-04T19:58:28.249Z,6.49
2019-03-04T20:00:56.800Z,6.62
2019-03-04T20:03:24.414Z,6.56
2019-03-04T20:05:52.046Z,6.41
2019-03-04T20:08:19.715Z,6.43
2019-03-04T20:10:47.374Z,6.39
2019-03-04T20:13:15.039Z,6.42
2019-03-04T20:15:42.769Z,6.37
2019-03-04T20:18:10.407Z,6.39
2019-03-04T20:20:38.047Z,6.47
2019-03-04T20:23:05.683Z,6.53
2019-03-04T20:25:33.318Z,6.45
2019-03-04T20:28:00.954Z,6.47
2019-03-04T20:30:28.639Z,6.43
2019-03-04T20:32:56.286Z,6.47
2019-03-04T20:35:23.927Z,6.51
2019-03-04T20:37:51.570Z,6.41
2019-03-04T20:40:19.207Z,6.43
2019-03-04T20:42:46.870Z,6.43
2019-03-04T20:45:14.704Z,6.35
2019-03-04T20:47:42.363Z,6.33
2019-03-04T20:50:10.006Z,6.31
2019-03-04T20:52:37.639Z,6.33
2019-03-04T20:55:05.278Z,6.35
2019-03-04T20:57:32.937Z,6.36
2019-03-04T21:00:00.574Z,6.44
2019-03-04T21:02:28.210Z,6.36
2019-03-04T21:04:55.856Z,6.37
2019-03-04T21:07:23.491Z,6.30
2019-03-04T21:09:51.132Z,6.32
2019-03-04T21:12:18.770Z,6.40
2019-03-04T21:14:46.413Z,6.30
2019-03-04T21:17:14.043Z,6.32
2019-03-04T21:19:41.688Z,6.27
2019-03-04T21:22:09.338Z,6.27
2019-03-04T21:24:36.976Z,6.37
2019-03-04T21:27:04.615Z,6.37
2019-03-04T21:29:32.252Z,6.31
2019-03-04T21:31:59.897Z,6.26
2019-03-04T21:34:27.593Z,6.33
2019-03-04T21:36:55.246Z,6.27
2019-03-04T21:39:22.874Z,6.20
2019-03-04T21:41:50.524Z,6.29
2019-03-04T21:44:18.146Z,6.23
2019-03-04T21:46:45.783Z,6.10
2019-03-04T21:49:13.493Z,6.07
2019-03-04T21:51:41.241Z,6.09
2019-03-04T21:54:08.887Z,6.18
2019-03-04T21:56:36.533Z,6.13
2019-03-04T21:59:04.177Z,6.13
2019-03-04T22:01:31.811Z,6.14
2019-03-04T22:03:59.518Z,6.10
2019-03-04T22:06:27.165Z,6.10
2019-03-04T22:08:54.794Z,6.09
2019-03-04T22:11:22.432Z,5.98
2019-03-04T22:13:50.081Z,6.07
2019-03-04T22:16:17.702Z,6.05
2019-03-04T22:18:45.348Z,6.00
2019-03-04T22:21:16.767Z,5.96
2019-03-04T22:23:42.374Z,5.97
2019-03-04T22:26:10.148Z,5.96
2019-03-04T22:28:37.858Z,6.01
2019-03-04T22:31:05.513Z,5.99
2019-03-04T22:33:33.311Z,6.06
2019-03-04T22:36:01.007Z,5.96
2019-03-04T22:38:28.653Z,6.10
2019-03-04T22:40:56.305Z,5.94
2019-03-04T22:43:23.951Z,5.97
2019-03-04T22:45:51.609Z,5.84
2019-03-04T22:48:19.259Z,5.89
2019-03-04T22:50:46.903Z,5.88
2019-03-04T22:53:14.544Z,5.88
2019-03-04T22:55:42.176Z,5.96
2019-03-04T22:58:09.813Z,6.07
2019-03-04T23:00:39.033Z,6.08
2019-03-04T23:03:06.831Z,6.13
2019-03-04T23:05:34.476Z,6.18
2019-03-04T23:08:02.115Z,6.16
2019-03-04T23:10:29.755Z,6.01
2019-03-04T23:12:57.407Z,6.00
2019-03-04T23:15:25.033Z,6.20
2019-03-04T23:17:52.685Z,6.08
2019-03-04T23:20:20.339Z,6.03
2019-03-04T23:22:47.974Z,6.00
2019-03-04T23:25:15.617Z,6.09
2019-03-04T23:27:43.277Z,6.00
2019-03-04T23:30:11.002Z,6.17
2019-03-04T23:32:38.634Z,6.09
2019-03-04T23:35:06.285Z,5.97
2019-03-04T23:37:33.927Z,6.11
2019-03-04T23:40:01.568Z,5.98
2019-03-04T23:42:29.199Z,5.96
2019-03-04T23:44:56.842Z,6.05
2019-03-04T23:47:24.554Z,6.04
2019-03-04T23:49:52.261Z,5.93
2019-03-04T23:52:19.939Z,5.86
2019-03-04T23:54:47.582Z,6.00
2019-03-04T23:57:15.226Z,6.06
2019-03-04T23:59:42.860Z,6.01
